sensor_id;sensor_type;location;lat;lon;timestamp;pressure;altitude;pressure_sealevel;temperature;humidity
42125;BME280;27787;44.594;11.046;2024-01-27T00:01:54;102130.13;;;5.75;100.00
42125;BME280;27787;44.594;11.046;2024-01-27T00:04:38;102124.81;;;5.73;100.00
42125;BME280;27787;44.594;11.046;2024-01-27T00:07:22;102131.00;;;5.57;100.00
42125;BME280;27787;44.594;11.046;2024-01-27T00:10:07;102138.91;;;5.41;100.00
42125;BME280;27787;44.594;11.046;2024-01-27T00:12:51;102138.91;;;5.41;100.00
42125;BME280;27787;44.594;11.046;2024-01-27T00:15:36;102144.97;;;5.40;100.00
42125;BME280;27787;44.594;11.046;2024-01-27T00:18:20;102149.75;;;5.31;100.00
42125;BME280;27787;44.594;11.046;2024-01-27T00:21:06;102144.84;;;5.37;100.00
42125;BME280;27787;44.594;11.046;2024-01-27T00:23:50;102134.31;;;5.53;100.00
42125;BME280;27787;44.594;11.046;2024-01-27T00:26:34;102122.84;;;5.69;100.00
42125;BME280;27787;44.594;11.046;2024-01-27T00:29:17;102120.69;;;5.78;100.00
42125;BME280;27787;44.594;11.046;2024-01-27T00:32:02;102125.03;;;5.78;100.00
42125;BME280;27787;44.594;11.046;2024-01-27T00:34:46;102118.66;;;5.73;100.00
42125;BME280;27787;44.594;11.046;2024-01-27T00:37:30;102122.91;;;5.71;100.00
42125;BME280;27787;44.594;11.046;2024-01-27T00:40:14;102135.19;;;5.72;100.00
42125;BME280;27787;44.594;11.046;2024-01-27T00:42:58;102141.13;;;5.68;100.00
42125;BME280;27787;44.594;11.046;2024-01-27T00:45:42;102138.13;;;5.60;100.00
42125;BME280;27787;44.594;11.046;2024-01-27T00:48:27;102140.28;;;5.51;100.00
42125;BME280;27787;44.594;11.046;2024-01-27T00:51:12;102153.75;;;5.41;100.00
42125;BME280;27787;44.594;11.046;2024-01-27T00:53:56;102164.00;;;5.20;100.00
42125;BME280;27787;44.594;11.046;2024-01-27T00:56:40;102166.19;;;4.78;100.00
42125;BME280;27787;44.594;11.046;2024-01-27T00:59:25;102172.81;;;4.24;100.00
42125;BME280;27787;44.594;11.046;2024-01-27T01:02:09;102189.75;;;3.85;100.00
42125;BME280;27787;44.594;11.046;2024-01-27T01:04:53;102196.25;;;3.62;100.00
42125;BME280;27787;44.594;11.046;2024-01-27T01:07:37;102197.34;;;3.36;100.00
42125;BME280;27787;44.594;11.046;2024-01-27T01:10:21;102192.56;;;3.14;100.00
42125;BME280;27787;44.594;11.046;2024-01-27T01:13:05;102195.25;;;3.01;100.00
42125;BME280;27787;44.594;11.046;2024-01-27T01:15:50;102203.31;;;2.91;100.00
42125;BME280;27787;44.594;11.046;2024-01-27T01:18:34;102209.56;;;2.80;100.00
42125;BME280;27787;44.594;11.046;2024-01-27T01:21:18;102207.38;;;2.73;100.00
42125;BME280;27787;44.594;11.046;2024-01-27T01:24:02;102210.59;;;2.69;100.00
42125;BME280;27787;44.594;11.046;2024-01-27T01:26:46;102216.41;;;2.78;100.00
42125;BME280;27787;44.594;11.046;2024-01-27T01:29:30;102228.72;;;2.80;100.00
42125;BME280;27787;44.594;11.046;2024-01-27T01:32:15;102229.53;;;2.79;100.00
42125;BME280;27787;44.594;11.046;2024-01-27T01:34:59;102234.34;;;2.73;100.00
42125;BME280;27787;44.594;11.046;2024-01-27T01:37:43;102224.84;;;2.74;100.00
42125;BME280;27787;44.594;11.046;2024-01-27T01:40:27;102220.22;;;2.97;100.00
42125;BME280;27787;44.594;11.046;2024-01-27T01:43:11;102213.88;;;3.22;100.00
42125;BME280;27787;44.594;11.046;2024-01-27T01:45:56;102220.41;;;3.43;100.00
42125;BME280;27787;44.594;11.046;2024-01-27T01:48:41;102212.00;;;3.64;100.00
42125;BME280;27787;44.594;11.046;2024-01-27T01:51:26;102225.09;;;3.78;100.00
42125;BME280;27787;44.594;11.046;2024-01-27T01:54:11;102219.66;;;3.90;100.00
42125;BME280;27787;44.594;11.046;2024-01-27T01:56:55;102222.97;;;4.02;100.00
42125;BME280;27787;44.594;11.046;2024-01-27T01:59:39;102227.66;;;4.08;100.00
42125;BME280;27787;44.594;11.046;2024-01-27T02:02:24;102226.47;;;4.18;100.00
42125;BME280;27787;44.594;11.046;2024-01-27T02:05:09;102229.34;;;4.22;100.00
42125;BME280;27787;44.594;11.046;2024-01-27T02:07:54;102221.41;;;4.21;100.00
42125;BME280;27787;44.594;11.046;2024-01-27T02:10:40;102229.47;;;4.09;100.00
42125;BME280;27787;44.594;11.046;2024-01-27T02:13:24;102243.88;;;4.02;100.00
42125;BME280;27787;44.594;11.046;2024-01-27T02:16:08;102236.75;;;4.00;100.00
42125;BME280;27787;44.594;11.046;2024-01-27T02:18:52;102246.41;;;4.01;100.00
42125;BME280;27787;44.594;11.046;2024-01-27T02:21:37;102237.13;;;4.06;100.00
42125;BME280;27787;44.594;11.046;2024-01-27T02:24:21;102242.59;;;4.10;100.00
42125;BME280;27787;44.594;11.046;2024-01-27T02:27:04;102250.09;;;4.04;100.00
42125;BME280;27787;44.594;11.046;2024-01-27T02:29:49;102241.91;;;3.98;100.00
42125;BME280;27787;44.594;11.046;2024-01-27T02:32:33;102245.25;;;3.96;100.00
42125;BME280;27787;44.594;11.046;2024-01-27T02:35:17;102241.25;;;4.02;100.00
42125;BME280;27787;44.594;11.046;2024-01-27T02:38:01;102233.78;;;4.08;100.00
42125;BME280;27787;44.594;11.046;2024-01-27T02:40:46;102235.50;;;4.08;100.00
42125;BME280;27787;44.594;11.046;2024-01-27T02:43:30;102236.47;;;4.10;100.00
42125;BME280;27787;44.594;11.046;2024-01-27T02:46:14;102240.00;;;4.10;100.00
42125;BME280;27787;44.594;11.046;2024-01-27T02:48:59;102235.84;;;4.14;100.00
42125;BME280;27787;44.594;11.046;2024-01-27T02:51:43;102233.59;;;4.20;100.00
42125;BME280;27787;44.594;11.046;2024-01-27T02:54:28;102230.31;;;4.24;100.00
42125;BME280;27787;44.594;11.046;2024-01-27T02:57:12;102232.94;;;4.24;100.00
42125;BME280;27787;44.594;11.046;2024-01-27T02:59:56;102236.81;;;4.16;100.00
42125;BME280;27787;44.594;11.046;2024-01-27T03:02:41;102241.44;;;4.20;100.00
42125;BME280;27787;44.594;11.046;2024-01-27T03:05:25;102231.22;;;4.25;100.00
42125;BME280;27787;44.594;11.046;2024-01-27T03:08:09;102250.78;;;4.31;100.00
42125;BME280;27787;44.594;11.046;2024-01-27T03:10:53;102242.44;;;4.38;100.00
42125;BME280;27787;44.594;11.046;2024-01-27T03:13:37;102245.41;;;4.44;100.00
42125;BME280;27787;44.594;11.046;2024-01-27T03:16:28;102234.22;;;4.47;100.00
42125;BME280;27787;44.594;11.046;2024-01-27T03:19:12;102238.81;;;4.51;100.00
42125;BME280;27787;44.594;11.046;2024-01-27T03:21:56;102239.88;;;4.55;100.00
42125;BME280;27787;44.594;11.046;2024-01-27T03:24:40;102239.88;;;4.55;100.00
42125;BME280;27787;44.594;11.046;2024-01-27T03:27:25;102238.34;;;4.58;100.00
42125;BME280;27787;44.594;11.046;2024-01-27T03:30:09;102239.31;;;4.60;100.00
42125;BME280;27787;44.594;11.046;2024-01-27T03:32:53;102255.84;;;4.59;100.00
42125;BME280;27787;44.594;11.046;2024-01-27T03:35:38;102260.16;;;4.59;100.00
42125;BME280;27787;44.594;11.046;2024-01-27T03:38:23;102259.25;;;4.58;100.00
42125;BME280;27787;44.594;11.046;2024-01-27T03:41:07;102255.84;;;4.59;100.00
42125;BME280;27787;44.594;11.046;2024-01-27T03:43:51;102249.69;;;4.59;100.00
42125;BME280;27787;44.594;11.046;2024-01-27T03:46:35;102250.69;;;4.61;100.00
42125;BME280;27787;44.594;11.046;2024-01-27T03:49:21;102243.72;;;4.61;100.00
42125;BME280;27787;44.594;11.046;2024-01-27T03:52:05;102260.31;;;4.62;100.00
42125;BME280;27787;44.594;11.046;2024-01-27T03:54:49;102258.91;;;4.52;100.00
42125;BME280;27787;44.594;11.046;2024-01-27T03:57:33;102262.34;;;4.51;100.00
42125;BME280;27787;44.594;11.046;2024-01-27T04:00:18;102276.16;;;4.49;100.00
42125;BME280;27787;44.594;11.046;2024-01-27T04:03:02;102278.03;;;4.51;100.00
42125;BME280;27787;44.594;11.046;2024-01-27T04:05:46;102276.97;;;4.48;100.00
42125;BME280;27787;44.594;11.046;2024-01-27T04:08:31;102285.44;;;4.43;100.00
42125;BME280;27787;44.594;11.046;2024-01-27T04:11:19;102288.44;;;4.35;100.00
42125;BME280;27787;44.594;11.046;2024-01-27T04:14:06;102287.97;;;4.27;100.00
42125;BME280;27787;44.594;11.046;2024-01-27T04:16:50;102286.66;;;4.19;100.00
42125;BME280;27787;44.594;11.046;2024-01-27T04:19:34;102280.97;;;4.11;100.00
42125;BME280;27787;44.594;11.046;2024-01-27T04:22:17;102280.81;;;4.08;100.00
42125;BME280;27787;44.594;11.046;2024-01-27T04:25:02;102283.75;;;4.14;100.00
42125;BME280;27787;44.594;11.046;2024-01-27T04:27:47;102285.19;;;4.24;100.00
42125;BME280;27787;44.594;11.046;2024-01-27T04:30:32;102288.88;;;4.28;100.00
42125;BME280;27787;44.594;11.046;2024-01-27T04:33:16;102294.84;;;4.25;100.00
42125;BME280;27787;44.594;11.046;2024-01-27T04:36:00;102294.59;;;4.21;100.00
42125;BME280;27787;44.594;11.046;2024-01-27T04:38:44;102283.25;;;4.20;100.00
42125;BME280;27787;44.594;11.046;2024-01-27T04:41:29;102281.69;;;4.24;100.00
42125;BME280;27787;44.594;11.046;2024-01-27T04:44:13;102281.94;;;4.28;100.00
42125;BME280;27787;44.594;11.046;2024-01-27T04:46:57;102287.16;;;4.28;100.00
42125;BME280;27787;44.594;11.046;2024-01-27T04:49:41;102277.63;;;4.29;100.00
42125;BME280;27787;44.594;11.046;2024-01-27T04:52:25;102273.19;;;4.28;100.00
42125;BME280;27787;44.594;11.046;2024-01-27T04:55:09;102275.19;;;4.32;100.00
42125;BME280;27787;44.594;11.046;2024-01-27T04:57:53;102273.00;;;4.39;100.00
42125;BME280;27787;44.594;11.046;2024-01-27T05:00:37;102280.38;;;4.47;100.00
42125;BME280;27787;44.594;11.046;2024-01-27T05:03:21;102280.56;;;4.50;100.00
42125;BME280;27787;44.594;11.046;2024-01-27T05:06:09;102283.53;;;4.56;100.00
42125;BME280;27787;44.594;11.046;2024-01-27T05:08:53;102288.75;;;4.56;100.00
42125;BME280;27787;44.594;11.046;2024-01-27T05:11:37;102284.50;;;4.58;100.00
42125;BME280;27787;44.594;11.046;2024-01-27T05:14:22;102277.97;;;4.66;100.00
42125;BME280;27787;44.594;11.046;2024-01-27T05:17:06;102279.69;;;4.65;100.00
42125;BME280;27787;44.594;11.046;2024-01-27T05:19:50;102278.53;;;4.60;100.00
42125;BME280;27787;44.594;11.046;2024-01-27T05:22:35;102282.38;;;4.67;100.00
42125;BME280;27787;44.594;11.046;2024-01-27T05:25:19;102287.97;;;4.73;100.00
42125;BME280;27787;44.594;11.046;2024-01-27T05:28:03;102293.94;;;4.70;100.00
42125;BME280;27787;44.594;11.046;2024-01-27T05:30:48;102300.53;;;4.64;100.00
42125;BME280;27787;44.594;11.046;2024-01-27T05:33:32;102305.44;;;4.58;100.00
42125;BME280;27787;44.594;11.046;2024-01-27T05:36:16;102297.38;;;4.55;100.00
42125;BME280;27787;44.594;11.046;2024-01-27T05:39:00;102299.47;;;4.60;100.00
42125;BME280;27787;44.594;11.046;2024-01-27T05:41:45;102293.59;;;4.64;100.00
42125;BME280;27787;44.594;11.046;2024-01-27T05:44:29;102300.69;;;4.67;100.00
42125;BME280;27787;44.594;11.046;2024-01-27T05:47:12;102295.47;;;4.67;100.00
42125;BME280;27787;44.594;11.046;2024-01-27T05:49:56;102301.19;;;4.60;100.00
42125;BME280;27787;44.594;11.046;2024-01-27T05:52:40;102305.22;;;4.55;100.00
42125;BME280;27787;44.594;11.046;2024-01-27T05:55:25;102314.63;;;4.51;100.00
42125;BME280;27787;44.594;11.046;2024-01-27T05:58:09;102321.81;;;4.55;100.00
42125;BME280;27787;44.594;11.046;2024-01-27T06:00:53;102323.00;;;4.60;100.00
42125;BME280;27787;44.594;11.046;2024-01-27T06:03:37;102330.59;;;4.56;100.00
42125;BME280;27787;44.594;11.046;2024-01-27T06:06:21;102340.03;;;4.54;100.00
42125;BME280;27787;44.594;11.046;2024-01-27T06:09:07;102348.25;;;4.60;100.00
42125;BME280;27787;44.594;11.046;2024-01-27T06:11:59;102352.63;;;4.76;100.00
42125;BME280;27787;44.594;11.046;2024-01-27T06:14:43;102357.50;;;4.84;100.00
42125;BME280;27787;44.594;11.046;2024-01-27T06:17:27;102349.22;;;4.93;100.00
42125;BME280;27787;44.594;11.046;2024-01-27T06:20:11;102341.81;;;5.00;100.00
42125;BME280;27787;44.594;11.046;2024-01-27T06:22:55;102353.44;;;5.06;100.00
42125;BME280;27787;44.594;11.046;2024-01-27T06:25:39;102350.91;;;5.07;100.00
42125;BME280;27787;44.594;11.046;2024-01-27T06:28:24;102341.97;;;5.03;100.00
42125;BME280;27787;44.594;11.046;2024-01-27T06:31:08;102357.53;;;5.00;100.00
42125;BME280;27787;44.594;11.046;2024-01-27T06:33:52;102353.94;;;4.98;100.00
42125;BME280;27787;44.594;11.046;2024-01-27T06:36:36;102353.94;;;4.98;100.00
42125;BME280;27787;44.594;11.046;2024-01-27T06:39:20;102358.44;;;5.01;100.00
42125;BME280;27787;44.594;11.046;2024-01-27T06:42:05;102366.44;;;5.04;100.00
42125;BME280;27787;44.594;11.046;2024-01-27T06:44:49;102356.13;;;5.07;100.00
42125;BME280;27787;44.594;11.046;2024-01-27T06:47:33;102364.88;;;5.08;100.00
42125;BME280;27787;44.594;11.046;2024-01-27T06:50:17;102378.16;;;5.11;100.00
42125;BME280;27787;44.594;11.046;2024-01-27T06:53:01;102365.91;;;5.10;100.00
42125;BME280;27787;44.594;11.046;2024-01-27T06:55:45;102362.03;;;5.03;100.00
42125;BME280;27787;44.594;11.046;2024-01-27T06:58:30;102360.22;;;5.02;100.00
42125;BME280;27787;44.594;11.046;2024-01-27T07:01:14;102376.75;;;5.01;100.00
42125;BME280;27787;44.594;11.046;2024-01-27T07:03:58;102371.25;;;4.96;100.00
42125;BME280;27787;44.594;11.046;2024-01-27T07:06:43;102375.81;;;4.84;100.00
42125;BME280;27787;44.594;11.046;2024-01-27T07:09:27;102377.16;;;4.78;100.00
42125;BME280;27787;44.594;11.046;2024-01-27T07:12:11;102381.84;;;4.83;100.00
42125;BME280;27787;44.594;11.046;2024-01-27T07:14:56;102384.97;;;4.92;100.00
42125;BME280;27787;44.594;11.046;2024-01-27T07:17:40;102385.41;;;5.00;100.00
42125;BME280;27787;44.594;11.046;2024-01-27T07:20:25;102390.28;;;5.09;100.00
42125;BME280;27787;44.594;11.046;2024-01-27T07:23:08;102376.59;;;5.14;100.00
42125;BME280;27787;44.594;11.046;2024-01-27T07:25:52;102382.75;;;5.15;100.00
42125;BME280;27787;44.594;11.046;2024-01-27T07:28:37;102374.44;;;5.07;100.00
42125;BME280;27787;44.594;11.046;2024-01-27T07:31:21;102379.94;;;4.95;100.00
42125;BME280;27787;44.594;11.046;2024-01-27T07:34:07;102374.25;;;4.88;100.00
42125;BME280;27787;44.594;11.046;2024-01-27T07:36:51;102379.84;;;4.79;100.00
42125;BME280;27787;44.594;11.046;2024-01-27T07:39:35;102390.16;;;4.76;100.00
42125;BME280;27787;44.594;11.046;2024-01-27T07:42:19;102383.22;;;4.77;100.00
42125;BME280;27787;44.594;11.046;2024-01-27T07:45:04;102375.22;;;4.90;100.00
42125;BME280;27787;44.594;11.046;2024-01-27T07:47:50;102375.09;;;5.03;100.00
42125;BME280;27787;44.594;11.046;2024-01-27T07:50:35;102378.91;;;5.08;100.00
42125;BME280;27787;44.594;11.046;2024-01-27T07:53:21;102380.28;;;5.18;100.00
42125;BME280;27787;44.594;11.046;2024-01-27T07:56:07;102371.69;;;5.20;100.00
42125;BME280;27787;44.594;11.046;2024-01-27T07:58:53;102364.94;;;5.24;100.00
42125;BME280;27787;44.594;11.046;2024-01-27T08:01:38;102364.44;;;5.31;100.00
42125;BME280;27787;44.594;11.046;2024-01-27T08:04:22;102366.56;;;5.38;100.00
42125;BME280;27787;44.594;11.046;2024-01-27T08:07:06;102374.94;;;5.47;100.00
42125;BME280;27787;44.594;11.046;2024-01-27T08:09:53;102361.69;;;5.60;100.00
42125;BME280;27787;44.594;11.046;2024-01-27T08:12:37;102368.34;;;5.72;100.00
42125;BME280;27787;44.594;11.046;2024-01-27T08:15:22;102372.22;;;5.78;100.00
42125;BME280;27787;44.594;11.046;2024-01-27T08:18:06;102370.66;;;5.82;100.00
42125;BME280;27787;44.594;11.046;2024-01-27T08:20:51;102380.66;;;5.89;100.00
42125;BME280;27787;44.594;11.046;2024-01-27T08:23:35;102376.31;;;5.89;100.00
42125;BME280;27787;44.594;11.046;2024-01-27T08:26:19;102381.81;;;5.94;100.00
42125;BME280;27787;44.594;11.046;2024-01-27T08:29:04;102386.38;;;5.98;100.00
42125;BME280;27787;44.594;11.046;2024-01-27T08:31:49;102384.44;;;5.94;100.00
42125;BME280;27787;44.594;11.046;2024-01-27T08:34:34;102392.22;;;5.93;100.00
42125;BME280;27787;44.594;11.046;2024-01-27T08:37:19;102397.47;;;5.93;100.00
42125;BME280;27787;44.594;11.046;2024-01-27T08:40:07;102406.38;;;5.96;100.00
42125;BME280;27787;44.594;11.046;2024-01-27T08:42:51;102398.84;;;6.02;100.00
42125;BME280;27787;44.594;11.046;2024-01-27T08:45:37;102407.59;;;6.03;100.00
42125;BME280;27787;44.594;11.046;2024-01-27T08:48:22;102405.13;;;6.06;100.00
42125;BME280;27787;44.594;11.046;2024-01-27T08:51:11;102417.50;;;6.08;100.00
42125;BME280;27787;44.594;11.046;2024-01-27T08:53:56;102423.63;;;6.09;100.00
42125;BME280;27787;44.594;11.046;2024-01-27T08:56:40;102429.72;;;6.08;100.00
42125;BME280;27787;44.594;11.046;2024-01-27T08:59:25;102424.81;;;6.14;100.00
42125;BME280;27787;44.594;11.046;2024-01-27T09:02:09;102421.50;;;6.18;100.00
42125;BME280;27787;44.594;11.046;2024-01-27T09:04:54;102414.53;;;6.18;100.00
42125;BME280;27787;44.594;11.046;2024-01-27T09:07:39;102422.25;;;6.15;100.00
42125;BME280;27787;44.594;11.046;2024-01-27T09:10:23;102418.81;;;6.16;100.00
42125;BME280;27787;44.594;11.046;2024-01-27T09:13:08;102423.06;;;6.14;100.00
42125;BME280;27787;44.594;11.046;2024-01-27T09:15:52;102422.50;;;6.04;100.00
42125;BME280;27787;44.594;11.046;2024-01-27T09:18:36;102417.59;;;5.94;100.00
42125;BME280;27787;44.594;11.046;2024-01-27T09:21:20;102426.03;;;5.88;100.00
42125;BME280;27787;44.594;11.046;2024-01-27T09:24:06;102428.22;;;5.80;100.00
42125;BME280;27787;44.594;11.046;2024-01-27T09:26:51;102422.97;;;5.80;100.00
42125;BME280;27787;44.594;11.046;2024-01-27T09:29:35;102428.44;;;5.85;100.00
42125;BME280;27787;44.594;11.046;2024-01-27T09:32:19;102432.16;;;5.88;100.00
42125;BME280;27787;44.594;11.046;2024-01-27T09:35:04;102432.91;;;5.86;100.00
42125;BME280;27787;44.594;11.046;2024-01-27T09:37:48;102434.28;;;5.79;100.00
42125;BME280;27787;44.594;11.046;2024-01-27T09:40:32;102443.03;;;5.80;100.00
42125;BME280;27787;44.594;11.046;2024-01-27T09:43:18;102446.00;;;5.86;100.00
42125;BME280;27787;44.594;11.046;2024-01-27T09:46:03;102445.91;;;5.84;100.00
42125;BME280;27787;44.594;11.046;2024-01-27T09:48:47;102441.66;;;5.86;100.00
42125;BME280;27787;44.594;11.046;2024-01-27T09:51:32;102444.03;;;5.98;100.00
42125;BME280;27787;44.594;11.046;2024-01-27T09:54:17;102452.41;;;6.07;100.00
42125;BME280;27787;44.594;11.046;2024-01-27T09:57:04;102455.50;;;6.16;100.00
42125;BME280;27787;44.594;11.046;2024-01-27T09:59:49;102455.25;;;6.28;100.00
42125;BME280;27787;44.594;11.046;2024-01-27T10:02:33;102471.03;;;6.46;100.00
42125;BME280;27787;44.594;11.046;2024-01-27T10:05:19;102471.59;;;6.57;100.00
42125;BME280;27787;44.594;11.046;2024-01-27T10:08:06;102466.75;;;6.64;100.00
42125;BME280;27787;44.594;11.046;2024-01-27T10:10:56;102461.03;;;6.73;100.00
42125;BME280;27787;44.594;11.046;2024-01-27T10:13:41;102461.66;;;6.85;100.00
42125;BME280;27787;44.594;11.046;2024-01-27T10:16:26;102466.59;;;6.97;100.00
42125;BME280;27787;44.594;11.046;2024-01-27T10:19:18;102456.50;;;7.04;100.00
42125;BME280;27787;44.594;11.046;2024-01-27T10:22:02;102455.88;;;7.10;100.00
42125;BME280;27787;44.594;11.046;2024-01-27T10:24:47;102457.22;;;7.20;100.00
42125;BME280;27787;44.594;11.046;2024-01-27T10:27:34;102446.25;;;7.28;100.00
42125;BME280;27787;44.594;11.046;2024-01-27T10:30:19;102447.53;;;7.36;100.00
42125;BME280;27787;44.594;11.046;2024-01-27T10:33:04;102439.25;;;7.47;100.00
42125;BME280;27787;44.594;11.046;2024-01-27T10:35:57;102450.88;;;7.52;100.00
42125;BME280;27787;44.594;11.046;2024-01-27T10:38:42;102451.84;;;7.54;100.00
42125;BME280;27787;44.594;11.046;2024-01-27T10:41:26;102456.56;;;7.61;100.00
42125;BME280;27787;44.594;11.046;2024-01-27T10:44:14;102453.31;;;7.66;100.00
42125;BME280;27787;44.594;11.046;2024-01-27T10:47:01;102450.16;;;7.74;100.00
42125;BME280;27787;44.594;11.046;2024-01-27T10:49:47;102442.47;;;7.78;100.00
42125;BME280;27787;44.594;11.046;2024-01-27T10:52:32;102447.03;;;7.82;100.00
42125;BME280;27787;44.594;11.046;2024-01-27T10:55:16;102449.09;;;7.89;100.00
42125;BME280;27787;44.594;11.046;2024-01-27T10:58:02;102444.22;;;7.97;100.00
42125;BME280;27787;44.594;11.046;2024-01-27T11:00:48;102445.38;;;8.04;100.00
42125;BME280;27787;44.594;11.046;2024-01-27T11:03:34;102448.28;;;8.10;100.00
42125;BME280;27787;44.594;11.046;2024-01-27T11:06:22;102454.75;;;8.18;100.00
42125;BME280;27787;44.594;11.046;2024-01-27T11:09:06;102443.75;;;8.26;100.00
42125;BME280;27787;44.594;11.046;2024-01-27T11:11:52;102443.22;;;8.34;100.00
42125;BME280;27787;44.594;11.046;2024-01-27T11:14:36;102443.38;;;8.37;100.00
42125;BME280;27787;44.594;11.046;2024-01-27T11:17:20;102440.03;;;8.41;100.00
42125;BME280;27787;44.594;11.046;2024-01-27T11:20:06;102438.47;;;8.46;100.00
42125;BME280;27787;44.594;11.046;2024-01-27T11:22:51;102439.59;;;8.51;100.00
42125;BME280;27787;44.594;11.046;2024-01-27T11:25:35;102432.84;;;8.57;100.00
42125;BME280;27787;44.594;11.046;2024-01-27T11:28:25;102433.94;;;8.63;100.00
42125;BME280;27787;44.594;11.046;2024-01-27T11:31:10;102430.59;;;8.67;100.00
42125;BME280;27787;44.594;11.046;2024-01-27T11:33:54;102432.44;;;8.69;100.00
42125;BME280;27787;44.594;11.046;2024-01-27T11:36:39;102434.53;;;8.76;100.00
42125;BME280;27787;44.594;11.046;2024-01-27T11:39:29;102427.63;;;8.80;100.00
42125;BME280;27787;44.594;11.046;2024-01-27T11:42:14;102435.88;;;8.88;100.00
42125;BME280;27787;44.594;11.046;2024-01-27T11:44:58;102433.47;;;8.94;100.00
42125;BME280;27787;44.594;11.046;2024-01-27T11:47:42;102434.56;;;8.99;100.00
42125;BME280;27787;44.594;11.046;2024-01-27T11:50:27;102428.53;;;9.01;100.00
42125;BME280;27787;44.594;11.046;2024-01-27T11:53:12;102432.41;;;9.11;100.00
42125;BME280;27787;44.594;11.046;2024-01-27T11:55:56;102425.56;;;9.14;100.00
42125;BME280;27787;44.594;11.046;2024-01-27T11:58:46;102431.00;;;9.19;100.00
42125;BME280;27787;44.594;11.046;2024-01-27T12:01:30;102426.94;;;9.27;100.00
42125;BME280;27787;44.594;11.046;2024-01-27T12:04:15;102428.91;;;9.33;100.00
42125;BME280;27787;44.594;11.046;2024-01-27T12:06:59;102423.69;;;9.34;100.00
42125;BME280;27787;44.594;11.046;2024-01-27T12:09:44;102414.88;;;9.34;100.00
42125;BME280;27787;44.594;11.046;2024-01-27T12:12:28;102423.75;;;9.36;100.00
42125;BME280;27787;44.594;11.046;2024-01-27T12:15:12;102423.09;;;9.41;100.00
42125;BME280;27787;44.594;11.046;2024-01-27T12:17:58;102427.63;;;9.45;100.00
42125;BME280;27787;44.594;11.046;2024-01-27T12:20:42;102425.94;;;9.48;100.00
42125;BME280;27787;44.594;11.046;2024-01-27T12:23:26;102430.53;;;9.52;100.00
42125;BME280;27787;44.594;11.046;2024-01-27T12:26:14;102432.44;;;9.56;100.00
42125;BME280;27787;44.594;11.046;2024-01-27T12:28:59;102438.81;;;9.62;100.00
42125;BME280;27787;44.594;11.046;2024-01-27T12:31:44;102433.69;;;9.65;100.00
42125;BME280;27787;44.594;11.046;2024-01-27T12:34:29;102438.22;;;9.69;100.00
42125;BME280;27787;44.594;11.046;2024-01-27T12:37:13;102437.50;;;9.73;100.00
42125;BME280;27787;44.594;11.046;2024-01-27T12:39:57;102441.22;;;9.79;100.00
42125;BME280;27787;44.594;11.046;2024-01-27T12:42:41;102448.22;;;9.78;100.00
42125;BME280;27787;44.594;11.046;2024-01-27T12:45:25;102439.53;;;9.81;100.00
42125;BME280;27787;44.594;11.046;2024-01-27T12:48:09;102447.44;;;9.81;100.00
42125;BME280;27787;44.594;11.046;2024-01-27T12:50:53;102444.81;;;9.81;100.00
42125;BME280;27787;44.594;11.046;2024-01-27T12:53:42;102431.38;;;9.74;100.00
42125;BME280;27787;44.594;11.046;2024-01-27T12:56:28;102431.31;;;9.73;100.00
42125;BME280;27787;44.594;11.046;2024-01-27T12:59:12;102428.63;;;9.71;100.00
42125;BME280;27787;44.594;11.046;2024-01-27T13:01:57;102423.34;;;9.71;100.00
42125;BME280;27787;44.594;11.046;2024-01-27T13:04:41;102419.94;;;9.74;100.00
42125;BME280;27787;44.594;11.046;2024-01-27T13:07:26;102413.06;;;9.78;100.00
42125;BME280;27787;44.594;11.046;2024-01-27T13:10:10;102412.41;;;9.85;100.00
42125;BME280;27787;44.594;11.046;2024-01-27T13:12:54;102416.06;;;9.88;100.00
42125;BME280;27787;44.594;11.046;2024-01-27T13:15:38;102412.75;;;9.94;100.00
42125;BME280;27787;44.594;11.046;2024-01-27T13:18:22;102403.16;;;9.96;100.00
42125;BME280;27787;44.594;11.046;2024-01-27T13:21:07;102395.34;;;9.99;100.00
42125;BME280;27787;44.594;11.046;2024-01-27T13:23:52;102405.19;;;10.03;100.00
42125;BME280;27787;44.594;11.046;2024-01-27T13:26:36;102406.91;;;10.02;100.00
42125;BME280;27787;44.594;11.046;2024-01-27T13:29:24;102401.63;;;10.02;100.00
42125;BME280;27787;44.594;11.046;2024-01-27T13:32:08;102397.34;;;10.04;100.00
42125;BME280;27787;44.594;11.046;2024-01-27T13:34:53;102396.63;;;10.10;100.00
42125;BME280;27787;44.594;11.046;2024-01-27T13:37:37;102398.47;;;10.13;100.00
42125;BME280;27787;44.594;11.046;2024-01-27T13:40:21;102392.41;;;10.15;100.00
42125;BME280;27787;44.594;11.046;2024-01-27T13:43:06;102403.16;;;10.20;100.00
42125;BME280;27787;44.594;11.046;2024-01-27T13:45:50;102402.38;;;10.22;100.00
42125;BME280;27787;44.594;11.046;2024-01-27T13:48:35;102402.53;;;10.27;100.00
42125;BME280;27787;44.594;11.046;2024-01-27T13:51:20;102409.69;;;10.29;100.00
42125;BME280;27787;44.594;11.046;2024-01-27T13:54:04;102404.50;;;10.32;100.00
42125;BME280;27787;44.594;11.046;2024-01-27T13:56:52;102407.19;;;10.34;99.18
42125;BME280;27787;44.594;11.046;2024-01-27T13:59:36;102400.22;;;10.36;98.60
42125;BME280;27787;44.594;11.046;2024-01-27T14:02:20;102396.97;;;10.43;98.33
42125;BME280;27787;44.594;11.046;2024-01-27T14:05:04;102402.38;;;10.48;97.88
42125;BME280;27787;44.594;11.046;2024-01-27T14:07:48;102410.41;;;10.51;96.12
42125;BME280;27787;44.594;11.046;2024-01-27T14:10:33;102416.69;;;10.54;95.05